createdAt,value
2019-05-26T00:00:12.891Z,13.20
2019-05-26T00:02:42.781Z,13.20
2019-05-26T00:05:11.661Z,13.10
2019-05-26T00:07:44.303Z,13.10
2019-05-26T00:10:13.140Z,13.10
2019-05-26T00:12:44.739Z,13.00
2019-05-26T00:15:13.580Z,13.00
2019-05-26T00:17:43.618Z,12.90
2019-05-26T00:20:15.780Z,12.90
2019-05-26T00:22:46.750Z,12.90
2019-05-26T00:25:17.987Z,12.90
2019-05-26T00:27:46.527Z,12.90
2019-05-26T00:30:15.537Z,12.80
2019-05-26T00:32:44.153Z,12.80
2019-05-26T00:35:15.526Z,12.80
2019-05-26T00:37:49.666Z,12.80
2019-05-26T00:40:14.505Z,12.80
2019-05-26T00:42:43.806Z,12.80
2019-05-26T00:45:14.428Z,12.80
2019-05-26T00:47:42.940Z,12.70
2019-05-26T00:50:15.089Z,12.70
2019-05-26T00:52:46.015Z,12.60
2019-05-26T00:55:15.031Z,12.60
2019-05-26T00:57:43.512Z,12.50
2019-05-26T01:00:13.841Z,12.50
2019-05-26T01:02:42.657Z,12.50
2019-05-26T01:05:12.444Z,12.50
2019-05-26T01:07:42.562Z,12.40
2019-05-26T01:10:14.144Z,12.40
2019-05-26T01:12:45.752Z,12.40
2019-05-26T01:15:15.094Z,12.40
2019-05-26T01:17:43.644Z,12.40
2019-05-26T01:20:16.444Z,12.30
2019-05-26T01:22:46.060Z,12.30
2019-05-26T01:25:15.778Z,12.30
2019-05-26T01:27:44.264Z,12.20
2019-05-26T01:30:15.126Z,12.20
2019-05-26T01:32:43.869Z,12.20
2019-05-26T01:35:12.679Z,12.10
2019-05-26T01:37:42.377Z,12.10
2019-05-26T01:40:13.935Z,12.10
2019-05-26T01:42:43.800Z,12.00
2019-05-26T01:45:12.645Z,12.00
2019-05-26T01:47:41.216Z,12.00
2019-05-26T01:50:11.089Z,12.00
2019-05-26T01:52:44.516Z,11.90
2019-05-26T01:55:13.588Z,11.90
2019-05-26T02:00:40.361Z,11.80
2019-05-26T02:03:11.774Z,11.70
2019-05-26T02:05:40.878Z,11.70
2019-05-26T02:08:11.945Z,11.70
2019-05-26T02:10:40.846Z,11.70
2019-05-26T02:13:10.549Z,11.70
2019-05-26T02:15:41.822Z,11.60
2019-05-26T02:18:10.297Z,11.60
2019-05-26T02:20:38.844Z,11.50
2019-05-26T02:23:07.575Z,11.50
2019-05-26T02:25:36.041Z,11.50
2019-05-26T02:28:04.530Z,11.50
2019-05-26T02:30:34.608Z,11.50
2019-05-26T02:33:03.159Z,11.50
2019-05-26T02:35:33.833Z,11.40
2019-05-26T02:38:02.347Z,11.50
2019-05-26T02:40:45.928Z,11.40
2019-05-26T02:43:14.519Z,11.50
2019-05-26T02:45:44.284Z,11.40
2019-05-26T02:48:12.851Z,11.40
2019-05-26T02:50:42.637Z,11.40
2019-05-26T02:53:14.379Z,11.40
2019-05-26T02:55:42.850Z,11.40
2019-05-26T02:58:14.008Z,11.40
2019-05-26T03:00:44.847Z,11.40
2019-05-26T03:03:16.455Z,11.40
2019-05-26T03:05:46.904Z,11.40
2019-05-26T03:08:17.331Z,11.40
2019-05-26T03:10:46.279Z,11.40
2019-05-26T03:13:16.910Z,11.30
2019-05-26T03:15:46.646Z,11.30
2019-05-26T03:18:15.588Z,11.20
2019-05-26T03:20:45.935Z,11.20
2019-05-26T03:23:16.002Z,11.20
2019-05-26T03:25:46.034Z,11.20
2019-05-26T03:28:15.960Z,11.20
2019-05-26T03:30:45.983Z,11.20
2019-05-26T03:33:14.617Z,11.20
2019-05-26T03:35:44.484Z,11.20
2019-05-26T03:38:15.187Z,11.20
2019-05-26T03:40:44.497Z,11.20
2019-05-26T03:43:16.205Z,11.10
2019-05-26T03:46:03.696Z,11.10
2019-05-26T03:48:32.388Z,11.10
2019-05-26T03:51:04.218Z,11.20
2019-05-26T03:53:32.706Z,11.10
2019-05-26T03:56:01.286Z,11.10
2019-05-26T03:58:29.847Z,11.10
2019-05-26T04:00:58.392Z,11.10
2019-05-26T04:03:26.910Z,11.10
2019-05-26T04:06:00.557Z,11.10
2019-05-26T04:08:29.358Z,11.10
2019-05-26T04:10:59.393Z,11.20
2019-05-26T04:13:27.868Z,11.20
2019-05-26T04:15:57.863Z,11.10
2019-05-26T04:18:26.359Z,11.20
2019-05-26T04:20:54.832Z,11.20
2019-05-26T04:23:24.739Z,11.20
2019-05-26T04:25:57.526Z,11.30
2019-05-26T04:28:28.655Z,11.30
2019-05-26T04:30:57.225Z,11.30
2019-05-26T04:33:26.974Z,11.30
2019-05-26T04:35:55.450Z,11.30
2019-05-26T04:38:25.906Z,11.30
2019-05-26T04:40:54.148Z,11.40
2019-05-26T04:43:23.695Z,11.40
2019-05-26T04:45:53.381Z,11.40
2019-05-26T04:48:27.808Z,11.50
2019-05-26T04:50:57.023Z,11.50
2019-05-26T04:53:26.479Z,11.50
2019-05-26T04:55:54.948Z,11.60
2019-05-26T04:58:26.464Z,11.60
2019-05-26T05:00:55.052Z,11.60
2019-05-26T05:03:23.590Z,11.60
2019-05-26T05:05:52.076Z,11.70
2019-05-26T05:08:20.565Z,11.70
2019-05-26T05:10:49.070Z,11.80
2019-05-26T05:13:17.714Z,11.80
2019-05-26T05:15:46.209Z,11.90
2019-05-26T05:18:14.724Z,12.00
2019-05-26T05:20:44.170Z,12.10
2019-05-26T05:23:12.756Z,12.20
2019-05-26T05:25:41.351Z,12.30
2019-05-26T05:28:09.936Z,12.30
2019-05-26T05:30:41.158Z,12.30
2019-05-26T05:33:09.657Z,12.40
2019-05-26T05:35:40.993Z,12.40
2019-05-26T05:38:09.460Z,12.40
2019-05-26T05:40:39.454Z,12.50
2019-05-26T05:43:07.923Z,12.60
2019-05-26T05:45:41.552Z,12.70
2019-05-26T05:48:11.577Z,12.80
2019-05-26T05:50:40.227Z,13.00
2019-05-26T05:53:13.013Z,13.10
2019-05-26T05:55:45.415Z,13.30
2019-05-26T05:58:13.855Z,13.40
2019-05-26T06:00:42.359Z,13.60
2019-05-26T06:03:12.689Z,13.70
2019-05-26T06:05:42.185Z,13.90
2019-05-26T06:08:10.704Z,14.10
2019-05-26T06:10:39.185Z,14.30
2019-05-26T06:13:07.764Z,14.50
2019-05-26T06:15:37.793Z,14.60
2019-05-26T06:18:06.278Z,14.60
2019-05-26T06:20:38.003Z,14.90
2019-05-26T06:23:06.530Z,15.30
2019-05-26T06:25:35.065Z,15.50
2019-05-26T06:28:05.948Z,15.50
2019-05-26T06:30:35.443Z,15.60
2019-05-26T06:33:04.158Z,15.80
2019-05-26T06:35:33.143Z,16.30
2019-05-26T06:38:01.923Z,16.60
2019-05-26T06:40:34.853Z,16.40
2019-05-26T06:43:03.537Z,16.20
2019-05-26T06:45:32.154Z,16.00
2019-05-26T06:48:00.634Z,15.90
2019-05-26T06:50:33.501Z,15.80
2019-05-26T06:53:04.687Z,15.80
2019-05-26T06:55:34.706Z,15.90
2019-05-26T06:58:03.211Z,16.00
2019-05-26T07:00:31.709Z,16.20
2019-05-26T07:03:03.043Z,16.40
2019-05-26T07:05:31.605Z,16.40
2019-05-26T07:08:00.599Z,16.50
2019-05-26T07:10:32.135Z,16.80
2019-05-26T07:13:03.648Z,17.00
2019-05-26T07:15:32.310Z,17.10
2019-05-26T07:18:01.217Z,17.00
2019-05-26T07:20:29.856Z,16.90
2019-05-26T07:23:03.557Z,17.00
2019-05-26T07:25:36.698Z,17.10
2019-05-26T07:28:08.530Z,17.30
2019-05-26T07:30:37.156Z,17.40
2019-05-26T07:33:06.890Z,17.60
2019-05-26T07:35:36.288Z,17.90
2019-05-26T07:38:04.784Z,18.00
2019-05-26T07:40:33.295Z,18.00
2019-05-26T07:43:01.898Z,18.00
2019-05-26T07:45:31.022Z,17.90
2019-05-26T07:48:00.827Z,17.80
2019-05-26T07:50:31.176Z,17.70
2019-05-26T07:53:00.854Z,17.80
2019-05-26T07:55:30.916Z,17.90
2019-05-26T07:58:02.546Z,17.90
2019-05-26T08:00:31.014Z,18.00
2019-05-26T08:03:00.283Z,17.90
2019-05-26T08:05:30.195Z,17.90
2019-05-26T08:08:12.062Z,17.90
2019-05-26T08:10:28.940Z,18.00
2019-05-26T08:12:59.922Z,18.00
2019-05-26T08:15:29.890Z,18.10
2019-05-26T08:17:58.406Z,18.10
2019-05-26T08:20:27.236Z,18.10
2019-05-26T08:22:56.908Z,18.10
2019-05-26T08:25:27.710Z,18.20
2019-05-26T08:27:56.261Z,18.10
2019-05-26T08:30:24.866Z,18.00
2019-05-26T08:32:54.468Z,18.10
2019-05-26T08:35:23.147Z,18.10
2019-05-26T08:37:51.690Z,18.10
2019-05-26T08:40:23.340Z,18.10
2019-05-26T08:42:56.148Z,18.10
2019-05-26T08:45:28.368Z,18.30
2019-05-26T08:47:56.858Z,18.50
2019-05-26T08:50:27.295Z,18.50
2019-05-26T08:52:55.811Z,18.60
2019-05-26T08:55:27.418Z,18.60
2019-05-26T08:57:56.008Z,18.70
2019-05-26T09:00:29.304Z,18.90
2019-05-26T09:02:57.926Z,19.00
2019-05-26T09:05:26.490Z,19.20
2019-05-26T09:07:58.801Z,19.40
2019-05-26T09:10:27.492Z,19.50
2019-05-26T09:13:01.738Z,19.70
2019-05-26T09:15:30.366Z,19.90
2019-05-26T09:18:03.179Z,20.00
2019-05-26T09:20:33.408Z,20.00
2019-05-26T09:23:03.213Z,20.00
2019-05-26T09:25:33.693Z,20.20
2019-05-26T09:28:02.525Z,20.30
2019-05-26T09:30:32.161Z,20.30
2019-05-26T09:33:01.858Z,20.20
2019-05-26T09:35:32.068Z,20.00
2019-05-26T09:38:01.512Z,19.90
2019-05-26T09:40:33.034Z,19.80
2019-05-26T09:43:15.788Z,19.90
2019-05-26T09:45:40.669Z,20.20
2019-05-26T09:48:09.243Z,20.40
2019-05-26T09:50:40.551Z,20.50
2019-05-26T09:53:11.827Z,20.70
2019-05-26T09:55:41.710Z,20.90
2019-05-26T09:58:13.154Z,20.90
2019-05-26T10:00:44.302Z,21.10
2019-05-26T10:03:14.684Z,21.20
2019-05-26T10:05:43.272Z,21.30
2019-05-26T10:08:12.969Z,21.40
2019-05-26T10:10:41.521Z,21.50
2019-05-26T10:13:13.099Z,21.40
2019-05-26T10:15:42.231Z,21.20
2019-05-26T10:18:10.753Z,21.10
2019-05-26T10:20:39.226Z,21.20
2019-05-26T10:23:13.521Z,21.00
2019-05-26T10:25:42.533Z,20.90
2019-05-26T10:28:12.864Z,21.00
2019-05-26T10:30:42.874Z,21.00
2019-05-26T10:33:11.460Z,21.20
2019-05-26T10:35:42.467Z,21.20
2019-05-26T10:38:10.951Z,21.10
2019-05-26T10:40:40.995Z,21.10
2019-05-26T10:43:09.593Z,21.10
2019-05-26T10:45:41.083Z,21.20
2019-05-26T10:48:09.738Z,21.20
2019-05-26T10:50:39.831Z,21.30
2019-05-26T10:53:08.465Z,21.40
2019-05-26T10:55:39.975Z,21.50
2019-05-26T10:58:11.643Z,21.40
2019-05-26T11:00:40.190Z,21.50
2019-05-26T11:03:11.590Z,21.50
2019-05-26T11:05:40.397Z,21.50
2019-05-26T11:08:08.945Z,21.60
2019-05-26T11:10:37.519Z,21.70
2019-05-26T11:13:09.991Z,22.00
2019-05-26T11:15:40.017Z,22.30
2019-05-26T11:18:11.304Z,22.40
2019-05-26T11:20:39.836Z,22.60
2019-05-26T11:23:11.313Z,22.80
2019-05-26T11:25:39.816Z,22.80
2019-05-26T11:28:08.363Z,22.80
2019-05-26T11:30:37.960Z,22.90
2019-05-26T11:33:07.515Z,22.80
2019-05-26T11:35:36.049Z,22.90
2019-05-26T11:38:05.084Z,22.90
2019-05-26T11:40:33.554Z,22.80
2019-05-26T11:43:15.768Z,22.70
2019-05-26T11:45:36.711Z,22.80
2019-05-26T11:48:05.427Z,23.00
2019-05-26T11:50:36.285Z,23.20
2019-05-26T11:53:04.896Z,23.40
2019-05-26T11:55:36.429Z,23.40
2019-05-26T11:58:06.801Z,23.20
2019-05-26T12:00:35.364Z,23.10
2019-05-26T12:03:03.936Z,23.10
2019-05-26T12:05:35.512Z,23.00
2019-05-26T12:08:04.257Z,23.00
2019-05-26T12:10:36.581Z,23.00
2019-05-26T12:13:06.333Z,23.00
2019-05-26T12:15:35.824Z,23.10
2019-05-26T12:18:07.832Z,23.10
2019-05-26T12:20:37.606Z,23.20
2019-05-26T12:23:09.110Z,23.30
2019-05-26T12:25:37.576Z,23.30
2019-05-26T12:28:07.675Z,23.40
2019-05-26T12:30:36.144Z,23.20
2019-05-26T12:33:07.834Z,23.10
2019-05-26T12:35:48.448Z,23.20
2019-05-26T12:38:18.304Z,23.30
2019-05-26T12:40:46.767Z,23.10
2019-05-26T12:43:17.995Z,23.00
2019-05-26T12:45:46.471Z,23.10
2019-05-26T12:48:16.076Z,23.30
2019-05-26T12:50:45.446Z,23.50
2019-05-26T12:53:16.118Z,23.40
2019-05-26T12:55:44.597Z,23.40
2019-05-26T12:58:13.212Z,23.30
2019-05-26T13:00:48.978Z,23.20
2019-05-26T13:03:12.764Z,23.20
2019-05-26T13:05:43.063Z,23.30
2019-05-26T13:08:11.579Z,23.30
2019-05-26T13:10:53.410Z,23.10
2019-05-26T13:13:23.983Z,23.00
2019-05-26T13:15:53.892Z,22.90
2019-05-26T13:18:25.240Z,22.60
2019-05-26T13:20:57.966Z,22.40
2019-05-26T13:23:26.615Z,22.30
2019-05-26T13:25:59.534Z,22.20
2019-05-26T13:28:25.346Z,22.10
2019-05-26T13:30:55.220Z,22.00
2019-05-26T13:33:23.688Z,22.00
2019-05-26T13:35:52.229Z,21.90
2019-05-26T13:38:20.754Z,21.80
2019-05-26T13:40:49.298Z,21.70
2019-05-26T13:43:17.826Z,21.70
2019-05-26T13:45:46.386Z,21.70
2019-05-26T13:48:15.840Z,21.60
2019-05-26T13:50:44.321Z,21.50
2019-05-26T13:53:14.128Z,21.30
2019-05-26T13:55:42.822Z,21.20
2019-05-26T13:58:11.869Z,21.20
2019-05-26T14:00:41.578Z,21.20
2019-05-26T14:03:10.691Z,21.20
2019-05-26T14:05:39.218Z,21.30
2019-05-26T14:08:07.749Z,21.40
2019-05-26T14:10:39.837Z,21.50
2019-05-26T14:13:10.913Z,21.50
2019-05-26T14:15:39.746Z,21.50
2019-05-26T14:18:10.935Z,21.50
2019-05-26T14:20:42.089Z,21.60
2019-05-26T14:23:13.633Z,21.50
2019-05-26T14:25:43.274Z,21.50
2019-05-26T14:28:14.921Z,21.50
2019-05-26T14:30:43.412Z,21.50
2019-05-26T14:33:12.061Z,21.50
2019-05-26T14:35:42.068Z,21.50
2019-05-26T14:38:10.641Z,21.50
2019-05-26T14:40:40.453Z,21.40
2019-05-26T14:43:09.141Z,21.40
2019-05-26T14:45:52.426Z,21.40
2019-05-26T14:48:09.891Z,21.40
2019-05-26T14:50:40.661Z,21.40
2019-05-26T14:53:12.092Z,21.40
2019-05-26T14:55:40.602Z,21.40
2019-05-26T14:58:15.549Z,21.40
2019-05-26T15:00:40.480Z,21.40
2019-05-26T15:03:10.675Z,21.50
2019-05-26T15:05:41.333Z,21.60
2019-05-26T15:08:09.978Z,21.60
2019-05-26T15:10:38.441Z,21.60
2019-05-26T15:13:06.986Z,21.70
2019-05-26T15:15:35.602Z,21.70
2019-05-26T15:18:05.752Z,21.70
2019-05-26T15:20:34.375Z,21.70
2019-05-26T15:23:05.035Z,21.60
2019-05-26T15:25:33.497Z,21.60
2019-05-26T15:28:03.685Z,21.60
2019-05-26T15:30:32.323Z,21.70
2019-05-26T15:33:02.281Z,21.80
2019-05-26T15:35:30.863Z,22.00
2019-05-26T15:38:00.968Z,22.10
2019-05-26T15:40:29.560Z,22.30
2019-05-26T15:43:03.204Z,22.40
2019-05-26T15:45:31.800Z,22.40
2019-05-26T15:48:00.294Z,22.20
2019-05-26T15:50:30.039Z,22.00
2019-05-26T15:52:58.616Z,21.90
2019-05-26T15:55:29.382Z,21.80
2019-05-26T15:57:57.841Z,21.70
2019-05-26T16:00:27.946Z,21.80
2019-05-26T16:02:56.791Z,21.90
2019-05-26T16:05:28.939Z,22.10
2019-05-26T16:07:57.506Z,22.20
2019-05-26T16:10:27.555Z,22.30
2019-05-26T16:12:56.214Z,22.20
2019-05-26T16:15:27.246Z,22.10
2019-05-26T16:17:55.966Z,22.10
2019-05-26T16:20:24.511Z,22.20
2019-05-26T16:22:53.332Z,22.00
2019-05-26T16:25:22.768Z,21.90
2019-05-26T16:27:51.238Z,21.80
2019-05-26T16:30:21.409Z,21.70
2019-05-26T16:32:49.956Z,21.60
2019-05-26T16:35:21.219Z,21.60
2019-05-26T16:37:51.836Z,21.60
2019-05-26T16:40:20.378Z,21.50
2019-05-26T16:42:50.062Z,21.50
2019-05-26T16:45:21.183Z,21.50
2019-05-26T16:47:51.290Z,21.70
2019-05-26T16:50:19.750Z,21.70
2019-05-26T16:52:48.324Z,21.80
2019-05-26T16:55:18.087Z,21.90
2019-05-26T16:57:49.080Z,21.90
2019-05-26T17:00:19.295Z,21.90
2019-05-26T17:02:49.020Z,22.00
2019-05-26T17:05:17.615Z,22.00
2019-05-26T17:07:50.383Z,21.90
2019-05-26T17:10:18.696Z,21.80
2019-05-26T17:12:48.526Z,21.80
2019-05-26T17:15:17.268Z,21.70
2019-05-26T17:17:46.840Z,21.70
2019-05-26T17:20:16.749Z,21.70
2019-05-26T17:22:48.312Z,21.70
2019-05-26T17:25:16.928Z,21.50
2019-05-26T17:27:46.669Z,21.40
2019-05-26T17:30:17.645Z,21.30
2019-05-26T17:32:48.235Z,21.30
2019-05-26T17:35:18.233Z,21.30
2019-05-26T17:37:46.898Z,21.20
2019-05-26T17:40:19.724Z,21.20
2019-05-26T17:42:48.413Z,21.20
2019-05-26T17:45:20.235Z,21.10
2019-05-26T17:47:52.633Z,21.00
2019-05-26T17:50:21.456Z,20.80
2019-05-26T17:52:53.445Z,20.70
2019-05-26T17:55:23.571Z,20.60
2019-05-26T17:57:53.759Z,20.50
2019-05-26T18:00:22.793Z,20.50
2019-05-26T18:02:51.348Z,20.50
2019-05-26T18:05:21.770Z,20.60
2019-05-26T18:07:51.286Z,20.60
2019-05-26T18:10:25.917Z,20.60
2019-05-26T18:12:54.422Z,20.60
2019-05-26T18:15:24.418Z,20.60
2019-05-26T18:17:52.909Z,20.50
2019-05-26T18:20:24.342Z,20.40
2019-05-26T18:22:55.927Z,20.40
2019-05-26T18:25:24.659Z,20.40
2019-05-26T18:27:53.119Z,20.30
2019-05-26T18:30:21.819Z,20.20
2019-05-26T18:32:50.324Z,20.00
2019-05-26T18:35:20.311Z,20.00
2019-05-26T18:37:52.394Z,19.90
2019-05-26T18:40:20.477Z,19.70
2019-05-26T18:42:48.956Z,19.60
2019-05-26T18:45:19.379Z,19.50
2019-05-26T18:48:01.796Z,19.50
2019-05-26T18:50:18.239Z,19.40
2019-05-26T18:52:46.712Z,19.30
2019-05-26T18:55:17.887Z,19.30
2019-05-26T18:57:49.208Z,19.30
2019-05-26T19:00:18.111Z,19.20
2019-05-26T19:02:46.677Z,19.20
2019-05-26T19:05:32.479Z,19.10
2019-05-26T19:07:49.755Z,19.10
2019-05-26T19:10:18.812Z,19.10
2019-05-26T19:12:50.283Z,19.00
2019-05-26T19:15:19.862Z,19.00
2019-05-26T19:17:49.959Z,18.90
2019-05-26T19:20:18.606Z,18.90
2019-05-26T19:22:53.170Z,18.90
2019-05-26T19:25:23.227Z,18.90
2019-05-26T19:27:51.699Z,18.90
2019-05-26T19:30:20.602Z,18.80
2019-05-26T19:32:49.192Z,18.80
2019-05-26T19:35:17.872Z,18.70
2019-05-26T19:37:46.343Z,18.70
2019-05-26T19:40:15.110Z,18.60
2019-05-26T19:42:43.926Z,18.50
2019-05-26T19:45:12.735Z,18.50
2019-05-26T19:47:41.303Z,18.50
2019-05-26T19:50:10.319Z,18.40
2019-05-26T19:52:39.054Z,18.40
2019-05-26T19:55:07.726Z,18.40
2019-05-26T19:57:36.333Z,18.40
2019-05-26T20:00:14.056Z,18.30
2019-05-26T20:02:42.623Z,18.20
2019-05-26T20:05:11.511Z,18.20
2019-05-26T20:07:40.052Z,18.10
2019-05-26T20:10:09.479Z,18.10
2019-05-26T20:12:38.030Z,18.00
2019-05-26T20:15:07.720Z,18.00
2019-05-26T20:17:36.234Z,17.90
2019-05-26T20:20:10.413Z,17.80
2019-05-26T20:22:39.017Z,17.80
2019-05-26T20:25:09.741Z,17.70
2019-05-26T20:27:38.277Z,17.70
2019-05-26T20:30:07.484Z,17.60
2019-05-26T20:32:36.148Z,17.60
2019-05-26T20:35:09.150Z,17.50
2019-05-26T20:37:37.703Z,17.50
2019-05-26T20:40:08.382Z,17.40
2019-05-26T20:42:36.997Z,17.30
2019-05-26T20:45:07.198Z,17.30
2019-05-26T20:47:35.734Z,17.20
2019-05-26T20:50:09.045Z,17.20
2019-05-26T20:52:37.981Z,17.20
2019-05-26T20:55:08.831Z,17.20
2019-05-26T20:57:37.346Z,17.20
2019-05-26T21:00:08.693Z,17.10
2019-05-26T21:02:37.852Z,17.10
2019-05-26T21:05:08.382Z,17.00
2019-05-26T21:07:37.088Z,17.00
2019-05-26T21:10:06.982Z,17.00
2019-05-26T21:12:35.545Z,17.00
2019-05-26T21:15:07.027Z,16.90
2019-05-26T21:17:35.596Z,17.00
2019-05-26T21:20:06.979Z,16.90
2019-05-26T21:22:35.631Z,16.90
2019-05-26T21:25:06.175Z,16.90
2019-05-26T21:27:35.503Z,16.90
2019-05-26T21:30:06.893Z,16.90
2019-05-26T21:32:38.470Z,16.80
2019-05-26T22:34:22.878Z,16.60
2019-05-26T22:36:51.404Z,16.60
2019-05-26T22:39:21.611Z,16.60
2019-05-26T22:41:50.194Z,16.60
2019-05-26T22:44:21.135Z,16.60
2019-05-26T22:46:49.593Z,16.60
2019-05-26T22:49:18.425Z,16.60
2019-05-26T22:51:47.033Z,16.60
2019-05-26T22:54:16.787Z,16.50
2019-05-26T22:56:45.283Z,16.40
2019-05-26T22:59:16.486Z,16.20
2019-05-26T23:01:45.161Z,16.00
2019-05-26T23:04:17.939Z,15.70
2019-05-26T23:06:47.977Z,15.50
2019-05-26T23:09:17.511Z,15.40
2019-05-26T23:11:47.078Z,15.30
2019-05-26T23:14:15.549Z,15.20
2019-05-26T23:16:44.205Z,15.20
2019-05-26T23:19:19.274Z,15.10
2019-05-26T23:21:45.510Z,15.00
2019-05-26T23:24:14.003Z,15.00
2019-05-26T23:26:42.488Z,14.90
2019-05-26T23:29:11.583Z,14.90
2019-05-26T23:31:42.738Z,14.90
2019-05-26T23:34:11.211Z,14.90
2019-05-26T23:36:40.735Z,14.80
2019-05-26T23:39:09.244Z,14.80
2019-05-26T23:41:38.794Z,14.70
2019-05-26T23:44:07.407Z,14.70
2019-05-26T23:46:40.236Z,14.70
2019-05-26T23:49:08.716Z,14.70
2019-05-26T23:51:39.278Z,14.60
2019-05-26T23:54:07.747Z,14.70
2019-05-26T23:56:37.888Z,14.60
2019-05-26T23:59:09.403Z,14.50
